createdAt,value
2023-04-22T00:00:01.062Z,60.9
2023-04-22T00:05:55.210Z,60.9
2023-04-22T00:11:46.802Z,60.8
2023-04-22T00:17:38.991Z,60.8
2023-04-22T00:23:31.253Z,60.8
2023-04-22T00:29:22.594Z,60.7
2023-04-22T00:35:15.299Z,60.7
2023-04-22T00:40:51.355Z,60.6
2023-04-22T00:46:43.323Z,60.6
2023-04-22T00:52:35.598Z,60.6
2023-04-22T00:58:26.870Z,60.5
2023-04-22T01:03:49.653Z,60.4
2023-04-22T01:09:41.694Z,60.7
2023-04-22T01:15:20.968Z,61.6
2023-04-22T01:21:13.799Z,62
2023-04-22T01:27:04.675Z,62.1
2023-04-22T01:32:57.000Z,62.2
2023-04-22T01:38:49.050Z,62.4
2023-04-22T01:44:40.372Z,62.5
2023-04-22T01:50:32.474Z,62.7
2023-04-22T01:56:08.863Z,62.7
2023-04-22T02:01:44.758Z,62.9
2023-04-22T02:07:37.917Z,62.9
2023-04-22T02:13:30.249Z,62.9
2023-04-22T02:19:21.304Z,63
2023-04-22T02:25:13.752Z,63.1
2023-04-22T02:31:04.359Z,63
2023-04-22T02:36:56.573Z,63
2023-04-22T02:42:48.026Z,62.9
2023-04-22T02:48:39.662Z,62.9
2023-04-22T02:54:15.802Z,62.9
2023-04-22T03:00:07.764Z,62.9
2023-04-22T03:06:04.086Z,62.9
2023-04-22T03:11:55.942Z,62.8
2023-04-22T03:17:48.626Z,62.8
2023-04-22T03:23:40.433Z,62.8
2023-04-22T03:29:31.683Z,62.7
2023-04-22T03:35:26.525Z,62.6
2023-04-22T03:41:19.031Z,62.6
2023-04-22T03:47:12.693Z,62.6
2023-04-22T03:53:05.393Z,62.6
2023-04-22T03:58:57.161Z,62.5
2023-04-22T04:04:37.933Z,62.4
2023-04-22T04:10:31.246Z,62.4
2023-04-22T04:16:22.914Z,62.4
2023-04-22T04:22:17.123Z,62.3
2023-04-22T04:28:09.011Z,62.3
2023-04-22T04:33:45.886Z,62.3
2023-04-22T04:39:38.006Z,62.2
2023-04-22T04:45:14.427Z,62.1
2023-04-22T04:51:07.449Z,62.1
2023-04-22T04:56:58.803Z,62.1
2023-04-22T05:02:51.048Z,62
2023-04-22T05:08:44.531Z,62
2023-04-22T05:14:35.988Z,61.9
2023-04-22T05:20:27.976Z,61.9
2023-04-22T05:26:19.092Z,61.9
2023-04-22T05:31:55.597Z,61.8
2023-04-22T05:37:47.835Z,61.8
2023-04-22T05:43:42.468Z,61.7
2023-04-22T05:49:33.854Z,61.7
2023-04-22T05:55:25.542Z,61.6
2023-04-22T06:01:17.774Z,61.6
2023-04-22T06:07:12.909Z,61.6
2023-04-22T06:12:55.260Z,61.5
2023-04-22T06:18:46.799Z,61.4
2023-04-22T06:24:40.841Z,61.4
2023-04-22T06:30:17.161Z,61.4
2023-04-22T06:36:09.154Z,61.3
2023-04-22T06:42:00.604Z,61.3
2023-04-22T06:47:52.126Z,61.3
2023-04-22T06:53:46.120Z,61.2
2023-04-22T06:59:38.402Z,61.2
2023-04-22T07:05:16.433Z,61.1
2023-04-22T07:11:08.540Z,61.1
2023-04-22T07:16:44.488Z,61.1
2023-04-22T07:22:36.810Z,61
2023-04-22T07:28:28.431Z,61.2
2023-04-22T07:34:04.740Z,61.4
2023-04-22T07:39:56.834Z,61.7
2023-04-22T07:45:48.017Z,62.1
2023-04-22T07:51:42.689Z,62.4
2023-04-22T07:57:19.473Z,62.9
2023-04-22T08:03:13.113Z,63.3
2023-04-22T08:09:22.666Z,63.7
2023-04-22T08:15:15.159Z,63.8
2023-04-22T08:21:06.964Z,63.8
2023-04-22T08:26:57.978Z,63.8
2023-04-22T08:32:50.254Z,63.8
2023-04-22T08:38:31.145Z,63.7
2023-04-22T08:44:30.440Z,63.6
2023-04-22T08:50:24.637Z,63.6
2023-04-22T08:56:16.517Z,63.6
2023-04-22T09:01:53.030Z,63.6
2023-04-22T09:07:30.395Z,63.9
2023-04-22T09:13:23.987Z,64.2
2023-04-22T09:19:15.705Z,64.5
2023-04-22T09:25:07.336Z,64.9
2023-04-22T09:30:59.230Z,65.6
2023-04-22T09:36:51.325Z,66.3
2023-04-22T09:42:51.925Z,66.9
2023-04-22T09:48:44.194Z,67.4
2023-04-22T09:54:35.471Z,67.5
2023-04-22T10:00:26.183Z,67.5
2023-04-22T10:06:18.527Z,67.4
2023-04-22T10:12:09.882Z,67.4
2023-04-22T10:18:10.811Z,67.6
2023-04-22T10:23:47.302Z,67.9
2023-04-22T10:29:37.999Z,68.4
2023-04-22T10:35:18.015Z,68.9
2023-04-22T10:41:11.937Z,69.4
2023-04-22T10:47:04.124Z,69.9
2023-04-22T10:52:40.452Z,70.4
2023-04-22T10:58:36.942Z,70.9
2023-04-22T11:04:43.836Z,71.4
2023-04-22T11:10:03.954Z,71.9
2023-04-22T11:15:56.135Z,72.3
2023-04-22T11:21:50.087Z,72.6
2023-04-22T11:27:42.792Z,72.8
2023-04-22T11:33:35.983Z,72.7
2023-04-22T11:39:12.257Z,72.7
2023-04-22T11:45:33.220Z,72.7
2023-04-22T11:51:25.331Z,72.6
2023-04-22T11:57:16.645Z,72.6
2023-04-22T12:02:53.168Z,72.5
2023-04-22T12:08:47.581Z,72.5
2023-04-22T12:14:38.862Z,72.4
2023-04-22T12:20:33.303Z,72.4
2023-04-22T12:26:26.728Z,72.3
2023-04-22T12:32:18.298Z,72.3
2023-04-22T12:38:10.241Z,72.2
2023-04-22T12:44:02.694Z,72.1
2023-04-22T12:49:55.387Z,72.1
2023-04-22T12:55:47.206Z,72.1
2023-04-22T13:01:39.158Z,72
2023-04-22T13:07:33.637Z,71.9
2023-04-22T13:13:48.820Z,71.9
2023-04-22T13:19:43.521Z,71.8
2023-04-22T13:25:19.863Z,71.8
2023-04-22T13:31:15.152Z,71.7
2023-04-22T13:37:07.621Z,71.6
2023-04-22T13:42:59.457Z,71.6
2023-04-22T13:48:51.849Z,71.6
2023-04-22T13:54:44.588Z,71.4
2023-04-22T14:00:21.518Z,71.4
2023-04-22T14:06:14.516Z,71.3
2023-04-22T14:11:51.315Z,71.3
2023-04-22T14:17:29.384Z,71.3
2023-04-22T14:23:07.588Z,71.2
2023-04-22T14:28:59.084Z,71.1
2023-04-22T14:34:52.785Z,71.1
2023-04-22T14:40:46.169Z,71
2023-04-22T14:46:40.363Z,70.9
2023-04-22T14:52:31.963Z,70.9
2023-04-22T14:58:32.313Z,70.8
2023-04-22T15:04:25.817Z,70.8
2023-04-22T15:10:16.471Z,70.8
2023-04-22T15:16:08.016Z,70.7
2023-04-22T15:22:01.810Z,70.6
2023-04-22T15:27:53.702Z,70.6
2023-04-22T15:33:47.499Z,70.5
2023-04-22T15:39:39.384Z,70.4
2023-04-22T15:45:32.106Z,70.4
2023-04-22T15:51:08.159Z,70.3
2023-04-22T15:56:59.402Z,70.3
2023-04-22T16:03:14.171Z,70.2
2023-04-22T16:09:06.304Z,70.1
2023-04-22T16:14:58.249Z,70.1
2023-04-22T16:20:49.528Z,70.1
2023-04-22T16:26:40.917Z,70
2023-04-22T16:32:32.674Z,69.9
2023-04-22T16:38:08.303Z,69.9
2023-04-22T16:43:44.114Z,69.8
2023-04-22T16:49:20.450Z,69.8
2023-04-22T16:55:11.716Z,69.7
2023-04-22T17:01:04.344Z,69.6
2023-04-22T17:06:58.222Z,69.6
2023-04-22T17:12:49.832Z,69.5
2023-04-22T17:18:41.592Z,69.4
2023-04-22T17:24:33.178Z,69.4
2023-04-22T17:30:08.291Z,69.3
2023-04-22T17:36:00.259Z,69.3
2023-04-22T17:41:52.638Z,69.2
2023-04-22T17:47:57.105Z,69.2
2023-04-22T17:53:48.485Z,69.1
2023-04-22T17:59:40.245Z,69.1
2023-04-22T18:05:33.030Z,69
2023-04-22T18:11:23.988Z,68.9
2023-04-22T18:17:17.501Z,68.9
2023-04-22T18:23:21.259Z,68.8
2023-04-22T18:29:12.869Z,68.8
2023-04-22T18:34:49.827Z,68.7
2023-04-22T18:40:40.178Z,68.6
2023-04-22T18:46:16.517Z,68.6
2023-04-22T18:52:08.026Z,68.5
2023-04-22T18:57:43.723Z,68.4
2023-04-22T19:03:21.519Z,68.4
2023-04-22T19:09:14.220Z,68.4
2023-04-22T19:15:06.171Z,68.3
2023-04-22T19:20:42.897Z,68.3
2023-04-22T19:26:19.504Z,68.2
2023-04-22T19:31:56.402Z,68.1
2023-04-22T19:37:48.391Z,68.1
2023-04-22T19:43:26.340Z,68
2023-04-22T19:49:02.376Z,68
2023-04-22T19:54:53.627Z,67.9
2023-04-22T20:00:45.692Z,67.9
2023-04-22T20:06:39.320Z,67.8
2023-04-22T20:12:30.718Z,67.8
2023-04-22T20:18:22.837Z,67.7
2023-04-22T20:24:14.875Z,67.6
2023-04-22T20:30:07.104Z,67.6
2023-04-22T20:35:58.868Z,67.5
2023-04-22T20:41:49.548Z,67.4
2023-04-22T20:47:44.917Z,67.4
2023-04-22T20:53:36.046Z,67.3
2023-04-22T20:59:39.338Z,67.3
2023-04-22T21:05:33.101Z,67.2
2023-04-22T21:11:24.927Z,67.1
2023-04-22T21:17:17.676Z,67.1
2023-04-22T21:23:09.303Z,67.1
2023-04-22T21:29:01.310Z,67
2023-04-22T21:35:04.711Z,66.9
2023-04-22T21:40:58.390Z,66.9
2023-04-22T21:46:50.768Z,66.8
2023-04-22T21:52:25.904Z,66.8
2023-04-22T21:58:17.400Z,66.8
2023-04-22T22:03:54.465Z,66.7
2023-04-22T22:09:33.660Z,66.6
2023-04-22T22:15:36.821Z,66.6
2023-04-22T22:21:30.123Z,66.5
2023-04-22T22:27:21.977Z,66.4
2023-04-22T22:33:13.996Z,66.4
2023-04-22T22:39:06.019Z,66.3
2023-04-22T22:44:58.254Z,66.3
2023-04-22T22:50:50.993Z,66.3
2023-04-22T22:56:42.466Z,66.1
2023-04-22T23:02:34.823Z,66.1
2023-04-22T23:08:27.781Z,66.1
2023-04-22T23:14:04.305Z,66
2023-04-22T23:19:55.436Z,65.9
2023-04-22T23:25:46.923Z,65.9
2023-04-22T23:31:37.843Z,65.8
2023-04-22T23:37:29.277Z,65.8
2023-04-22T23:43:21.013Z,65.7
2023-04-22T23:49:13.837Z,65.7
2023-04-22T23:54:49.883Z,65.6
